sensor_id;sensor_type;location;lat;lon;timestamp;P1;durP1;ratioP1;P2;durP2;ratioP2
68247;SDS011;55064;49.636;12.164;2023-08-21T00:05:20;14.97;;;8.70;;
68247;SDS011;55064;49.636;12.164;2023-08-21T00:11:02;12.50;;;7.78;;
68247;SDS011;55064;49.636;12.164;2023-08-21T00:13:27;13.25;;;8.10;;
68247;SDS011;55064;49.636;12.164;2023-08-21T00:28:20;13.73;;;8.43;;
68247;SDS011;55064;49.636;12.164;2023-08-21T00:30:45;12.60;;;8.33;;
68247;SDS011;55064;49.636;12.164;2023-08-21T00:39:27;14.07;;;8.43;;
68247;SDS011;55064;49.636;12.164;2023-08-21T00:45:15;17.10;;;9.07;;
68247;SDS011;55064;49.636;12.164;2023-08-21T00:57:23;13.20;;;9.20;;
68247;SDS011;55064;49.636;12.164;2023-08-21T01:00:01;13.15;;;8.68;;
68247;SDS011;55064;49.636;12.164;2023-08-21T01:05:53;12.77;;;8.83;;
68247;SDS011;55064;49.636;12.164;2023-08-21T01:18:41;16.63;;;9.10;;
68247;SDS011;55064;49.636;12.164;2023-08-21T01:37:02;11.90;;;8.43;;
68247;SDS011;55064;49.636;12.164;2023-08-21T01:42:57;11.38;;;8.13;;
68247;SDS011;55064;49.636;12.164;2023-08-21T01:48:45;14.07;;;8.90;;
68247;SDS011;55064;49.636;12.164;2023-08-21T02:04:07;12.43;;;8.38;;
68247;SDS011;55064;49.636;12.164;2023-08-21T02:10:08;13.57;;;8.43;;
68247;SDS011;55064;49.636;12.164;2023-08-21T02:12:46;15.10;;;8.83;;
68247;SDS011;55064;49.636;12.164;2023-08-21T02:15:13;13.82;;;9.27;;
68247;SDS011;55064;49.636;12.164;2023-08-21T02:17:41;11.73;;;8.43;;
68247;SDS011;55064;49.636;12.164;2023-08-21T02:20:25;13.30;;;9.27;;
68247;SDS011;55064;49.636;12.164;2023-08-21T02:44:56;14.23;;;8.70;;
68247;SDS011;55064;49.636;12.164;2023-08-21T02:50:44;14.00;;;9.18;;
68247;SDS011;55064;49.636;12.164;2023-08-21T02:53:11;14.15;;;9.38;;
68247;SDS011;55064;49.636;12.164;2023-08-21T03:05:22;12.73;;;8.77;;
68247;SDS011;55064;49.636;12.164;2023-08-21T03:07:59;12.88;;;9.00;;
68247;SDS011;55064;49.636;12.164;2023-08-21T03:10:29;14.13;;;9.15;;
68247;SDS011;55064;49.636;12.164;2023-08-21T03:41:03;15.02;;;9.60;;
68247;SDS011;55064;49.636;12.164;2023-08-21T03:46:51;14.23;;;8.85;;
68247;SDS011;55064;49.636;12.164;2023-08-21T03:49:24;13.10;;;9.20;;
68247;SDS011;55064;49.636;12.164;2023-08-21T04:10:10;17.87;;;9.87;;
68247;SDS011;55064;49.636;12.164;2023-08-21T04:25:27;16.58;;;10.38;;
68247;SDS011;55064;49.636;12.164;2023-08-21T04:27:59;17.63;;;10.10;;
68247;SDS011;55064;49.636;12.164;2023-08-21T04:46:10;14.30;;;9.43;;
68247;SDS011;55064;49.636;12.164;2023-08-21T04:55:22;17.00;;;9.35;;
68247;SDS011;55064;49.636;12.164;2023-08-21T05:01:22;14.43;;;9.60;;
68247;SDS011;55064;49.636;12.164;2023-08-21T05:03:47;16.63;;;9.75;;
68247;SDS011;55064;49.636;12.164;2023-08-21T05:06:26;14.87;;;10.60;;
68247;SDS011;55064;49.636;12.164;2023-08-21T05:08:51;17.08;;;9.93;;
68247;SDS011;55064;49.636;12.164;2023-08-21T05:11:23;16.77;;;10.10;;
68247;SDS011;55064;49.636;12.164;2023-08-21T05:30:47;16.70;;;10.25;;
68247;SDS011;55064;49.636;12.164;2023-08-21T05:36:03;20.37;;;11.07;;
68247;SDS011;55064;49.636;12.164;2023-08-21T05:38:31;15.15;;;10.98;;
68247;SDS011;55064;49.636;12.164;2023-08-21T05:41:00;17.83;;;10.85;;
68247;SDS011;55064;49.636;12.164;2023-08-21T05:43:27;15.88;;;10.95;;
68247;SDS011;55064;49.636;12.164;2023-08-21T05:52:13;17.02;;;10.15;;
68247;SDS011;55064;49.636;12.164;2023-08-21T05:54:46;17.10;;;11.43;;
68247;SDS011;55064;49.636;12.164;2023-08-21T05:57:28;17.42;;;11.60;;
68247;SDS011;55064;49.636;12.164;2023-08-21T06:05:44;15.00;;;11.15;;
68247;SDS011;55064;49.636;12.164;2023-08-21T06:11:33;17.10;;;11.57;;
68247;SDS011;55064;49.636;12.164;2023-08-21T06:24:04;16.80;;;12.00;;
68247;SDS011;55064;49.636;12.164;2023-08-21T06:29:51;17.67;;;11.82;;
68247;SDS011;55064;49.636;12.164;2023-08-21T06:35:36;18.55;;;12.23;;
68247;SDS011;55064;49.636;12.164;2023-08-21T06:41:30;18.15;;;12.65;;
68247;SDS011;55064;49.636;12.164;2023-08-21T06:47:06;17.75;;;12.18;;
68247;SDS011;55064;49.636;12.164;2023-08-21T06:55:36;18.63;;;11.98;;
68247;SDS011;55064;49.636;12.164;2023-08-21T06:58:12;19.47;;;12.53;;
68247;SDS011;55064;49.636;12.164;2023-08-21T07:03:46;18.70;;;12.77;;
68247;SDS011;55064;49.636;12.164;2023-08-21T07:06:20;16.95;;;11.93;;
68247;SDS011;55064;49.636;12.164;2023-08-21T07:12:08;19.37;;;12.63;;
68247;SDS011;55064;49.636;12.164;2023-08-21T07:17:55;19.27;;;12.00;;
68247;SDS011;55064;49.636;12.164;2023-08-21T07:20:33;21.85;;;12.30;;
68247;SDS011;55064;49.636;12.164;2023-08-21T07:25:27;18.35;;;12.07;;
68247;SDS011;55064;49.636;12.164;2023-08-21T07:27:56;18.80;;;12.10;;
68247;SDS011;55064;49.636;12.164;2023-08-21T07:30:23;16.40;;;11.45;;
68247;SDS011;55064;49.636;12.164;2023-08-21T07:32:49;16.53;;;11.60;;
68247;SDS011;55064;49.636;12.164;2023-08-21T07:40:37;17.35;;;12.30;;
68247;SDS011;55064;49.636;12.164;2023-08-21T07:43:04;18.10;;;12.82;;
68247;SDS011;55064;49.636;12.164;2023-08-21T07:45:37;18.27;;;11.53;;
68247;SDS011;55064;49.636;12.164;2023-08-21T07:48:04;18.35;;;12.27;;
68247;SDS011;55064;49.636;12.164;2023-08-21T07:53:14;17.60;;;11.70;;
68247;SDS011;55064;49.636;12.164;2023-08-21T08:04:42;18.95;;;11.43;;
68247;SDS011;55064;49.636;12.164;2023-08-21T08:10:24;17.38;;;12.27;;
68247;SDS011;55064;49.636;12.164;2023-08-21T08:19:36;15.65;;;10.43;;
68247;SDS011;55064;49.636;12.164;2023-08-21T08:22:04;17.07;;;11.60;;
68247;SDS011;55064;49.636;12.164;2023-08-21T08:24:29;19.70;;;11.20;;
68247;SDS011;55064;49.636;12.164;2023-08-21T08:26:56;15.67;;;10.87;;
68247;SDS011;55064;49.636;12.164;2023-08-21T08:29:22;14.82;;;10.57;;
68247;SDS011;55064;49.636;12.164;2023-08-21T08:31:48;13.80;;;9.73;;
68247;SDS011;55064;49.636;12.164;2023-08-21T08:34:13;14.70;;;10.57;;
68247;SDS011;55064;49.636;12.164;2023-08-21T08:36:38;15.30;;;11.50;;
68247;SDS011;55064;49.636;12.164;2023-08-21T08:39:06;13.77;;;9.80;;
68247;SDS011;55064;49.636;12.164;2023-08-21T08:41:48;14.73;;;10.13;;
68247;SDS011;55064;49.636;12.164;2023-08-21T08:44:19;16.00;;;10.50;;
68247;SDS011;55064;49.636;12.164;2023-08-21T08:46:44;12.40;;;10.18;;
68247;SDS011;55064;49.636;12.164;2023-08-21T08:49:10;14.13;;;9.70;;
68247;SDS011;55064;49.636;12.164;2023-08-21T08:51:36;13.05;;;9.55;;
68247;SDS011;55064;49.636;12.164;2023-08-21T08:54:03;15.68;;;10.07;;
68247;SDS011;55064;49.636;12.164;2023-08-21T08:56:29;15.30;;;9.67;;
68247;SDS011;55064;49.636;12.164;2023-08-21T08:58:54;13.63;;;9.73;;
68247;SDS011;55064;49.636;12.164;2023-08-21T09:01:20;13.85;;;9.88;;
68247;SDS011;55064;49.636;12.164;2023-08-21T09:03:47;16.13;;;9.70;;
68247;SDS011;55064;49.636;12.164;2023-08-21T09:06:16;12.85;;;9.70;;
68247;SDS011;55064;49.636;12.164;2023-08-21T09:09:14;14.43;;;9.80;;
68247;SDS011;55064;49.636;12.164;2023-08-21T09:11:35;12.55;;;9.75;;
68247;SDS011;55064;49.636;12.164;2023-08-21T09:14:01;12.85;;;9.98;;
68247;SDS011;55064;49.636;12.164;2023-08-21T09:16:26;13.07;;;9.83;;
68247;SDS011;55064;49.636;12.164;2023-08-21T09:18:52;13.40;;;9.90;;
68247;SDS011;55064;49.636;12.164;2023-08-21T09:21:20;14.40;;;9.70;;
68247;SDS011;55064;49.636;12.164;2023-08-21T09:23:48;11.98;;;9.50;;
68247;SDS011;55064;49.636;12.164;2023-08-21T09:26:20;16.05;;;9.80;;
68247;SDS011;55064;49.636;12.164;2023-08-21T09:28:46;13.00;;;10.13;;
68247;SDS011;55064;49.636;12.164;2023-08-21T09:31:16;13.80;;;10.00;;
68247;SDS011;55064;49.636;12.164;2023-08-21T09:33:54;15.32;;;9.80;;
68247;SDS011;55064;49.636;12.164;2023-08-21T09:36:30;12.70;;;10.00;;
68247;SDS011;55064;49.636;12.164;2023-08-21T09:38:58;13.40;;;10.40;;
68247;SDS011;55064;49.636;12.164;2023-08-21T09:41:28;12.52;;;8.93;;
68247;SDS011;55064;49.636;12.164;2023-08-21T09:43:55;13.70;;;9.77;;
68247;SDS011;55064;49.636;12.164;2023-08-21T09:46:24;13.20;;;9.07;;
68247;SDS011;55064;49.636;12.164;2023-08-21T09:48:54;13.18;;;9.63;;
68247;SDS011;55064;49.636;12.164;2023-08-21T09:51:20;14.67;;;9.23;;
68247;SDS011;55064;49.636;12.164;2023-08-21T09:53:50;10.63;;;8.70;;
68247;SDS011;55064;49.636;12.164;2023-08-21T09:56:19;12.07;;;8.65;;
68247;SDS011;55064;49.636;12.164;2023-08-21T09:58:46;12.63;;;8.85;;
68247;SDS011;55064;49.636;12.164;2023-08-21T10:01:15;10.70;;;8.13;;
68247;SDS011;55064;49.636;12.164;2023-08-21T10:03:42;12.13;;;8.55;;
68247;SDS011;55064;49.636;12.164;2023-08-21T10:06:15;12.48;;;8.60;;
68247;SDS011;55064;49.636;12.164;2023-08-21T10:08:43;12.27;;;9.00;;
68247;SDS011;55064;49.636;12.164;2023-08-21T10:11:13;13.68;;;9.32;;
68247;SDS011;55064;49.636;12.164;2023-08-21T10:13:39;12.33;;;9.00;;
68247;SDS011;55064;49.636;12.164;2023-08-21T10:16:06;12.15;;;8.48;;
68247;SDS011;55064;49.636;12.164;2023-08-21T10:18:36;12.65;;;8.85;;
68247;SDS011;55064;49.636;12.164;2023-08-21T10:21:15;12.60;;;7.37;;
68247;SDS011;55064;49.636;12.164;2023-08-21T10:23:43;14.47;;;7.00;;
68247;SDS011;55064;49.636;12.164;2023-08-21T10:26:12;12.25;;;7.95;;
68247;SDS011;55064;49.636;12.164;2023-08-21T10:28:47;12.15;;;7.50;;
68247;SDS011;55064;49.636;12.164;2023-08-21T10:31:25;10.55;;;7.40;;
68247;SDS011;55064;49.636;12.164;2023-08-21T10:33:51;9.50;;;5.87;;
68247;SDS011;55064;49.636;12.164;2023-08-21T10:36:36;8.43;;;5.30;;
68247;SDS011;55064;49.636;12.164;2023-08-21T10:39:14;9.10;;;5.77;;
68247;SDS011;55064;49.636;12.164;2023-08-21T10:41:54;10.52;;;6.35;;
68247;SDS011;55064;49.636;12.164;2023-08-21T10:47:14;10.15;;;6.68;;
68247;SDS011;55064;49.636;12.164;2023-08-21T10:49:40;10.70;;;7.65;;
68247;SDS011;55064;49.636;12.164;2023-08-21T10:52:08;11.13;;;7.13;;
68247;SDS011;55064;49.636;12.164;2023-08-21T10:54:49;10.02;;;6.25;;
68247;SDS011;55064;49.636;12.164;2023-08-21T10:57:16;9.43;;;6.78;;
68247;SDS011;55064;49.636;12.164;2023-08-21T11:02:43;9.75;;;7.22;;
68247;SDS011;55064;49.636;12.164;2023-08-21T11:05:13;10.27;;;7.05;;
68247;SDS011;55064;49.636;12.164;2023-08-21T11:07:41;10.43;;;7.18;;
68247;SDS011;55064;49.636;12.164;2023-08-21T11:10:09;9.80;;;7.13;;
68247;SDS011;55064;49.636;12.164;2023-08-21T11:12:47;10.30;;;6.53;;
68247;SDS011;55064;49.636;12.164;2023-08-21T11:15:17;13.75;;;6.97;;
68247;SDS011;55064;49.636;12.164;2023-08-21T11:17:58;10.35;;;6.97;;
68247;SDS011;55064;49.636;12.164;2023-08-21T11:20:32;9.73;;;7.03;;
68247;SDS011;55064;49.636;12.164;2023-08-21T11:23:00;10.40;;;7.05;;
68247;SDS011;55064;49.636;12.164;2023-08-21T11:25:34;10.03;;;6.87;;
68247;SDS011;55064;49.636;12.164;2023-08-21T11:28:02;9.80;;;6.32;;
68247;SDS011;55064;49.636;12.164;2023-08-21T11:30:30;10.02;;;6.22;;
68247;SDS011;55064;49.636;12.164;2023-08-21T11:33:10;10.23;;;6.57;;
68247;SDS011;55064;49.636;12.164;2023-08-21T11:35:38;10.98;;;6.50;;
68247;SDS011;55064;49.636;12.164;2023-08-21T11:38:14;8.80;;;6.53;;
68247;SDS011;55064;49.636;12.164;2023-08-21T11:40:41;10.45;;;6.72;;
68247;SDS011;55064;49.636;12.164;2023-08-21T11:43:06;10.93;;;7.03;;
68247;SDS011;55064;49.636;12.164;2023-08-21T11:45:36;10.18;;;6.82;;
68247;SDS011;55064;49.636;12.164;2023-08-21T11:48:01;10.17;;;7.13;;
68247;SDS011;55064;49.636;12.164;2023-08-21T11:50:28;8.85;;;6.00;;
68247;SDS011;55064;49.636;12.164;2023-08-21T11:52:55;11.27;;;6.53;;
68247;SDS011;55064;49.636;12.164;2023-08-21T11:55:23;10.25;;;6.88;;
68247;SDS011;55064;49.636;12.164;2023-08-21T11:57:51;14.20;;;7.17;;
68247;SDS011;55064;49.636;12.164;2023-08-21T12:00:26;11.20;;;7.30;;
68247;SDS011;55064;49.636;12.164;2023-08-21T12:05:22;10.48;;;6.50;;
68247;SDS011;55064;49.636;12.164;2023-08-21T12:07:48;11.67;;;7.10;;
68247;SDS011;55064;49.636;12.164;2023-08-21T12:10:21;12.48;;;6.28;;
68247;SDS011;55064;49.636;12.164;2023-08-21T12:12:50;9.60;;;6.63;;
68247;SDS011;55064;49.636;12.164;2023-08-21T12:15:20;11.30;;;6.57;;
68247;SDS011;55064;49.636;12.164;2023-08-21T12:17:47;11.43;;;6.93;;
68247;SDS011;55064;49.636;12.164;2023-08-21T12:20:13;11.27;;;7.10;;
68247;SDS011;55064;49.636;12.164;2023-08-21T12:22:39;10.60;;;6.28;;
68247;SDS011;55064;49.636;12.164;2023-08-21T12:25:08;13.37;;;6.57;;
68247;SDS011;55064;49.636;12.164;2023-08-21T12:27:35;9.73;;;6.00;;
68247;SDS011;55064;49.636;12.164;2023-08-21T12:30:05;11.68;;;7.03;;
68247;SDS011;55064;49.636;12.164;2023-08-21T12:32:35;11.82;;;6.30;;
68247;SDS011;55064;49.636;12.164;2023-08-21T12:35:01;11.45;;;6.50;;
68247;SDS011;55064;49.636;12.164;2023-08-21T12:37:29;11.77;;;6.47;;
68247;SDS011;55064;49.636;12.164;2023-08-21T12:39:56;12.18;;;6.05;;
68247;SDS011;55064;49.636;12.164;2023-08-21T12:42:22;11.03;;;6.13;;
68247;SDS011;55064;49.636;12.164;2023-08-21T12:44:47;9.52;;;6.10;;
68247;SDS011;55064;49.636;12.164;2023-08-21T12:47:12;11.33;;;6.50;;
68247;SDS011;55064;49.636;12.164;2023-08-21T12:49:38;10.10;;;6.90;;
68247;SDS011;55064;49.636;12.164;2023-08-21T12:52:06;10.77;;;6.90;;
68247;SDS011;55064;49.636;12.164;2023-08-21T12:54:32;11.00;;;7.30;;
68247;SDS011;55064;49.636;12.164;2023-08-21T12:56:59;10.60;;;6.65;;
68247;SDS011;55064;49.636;12.164;2023-08-21T12:59:25;11.57;;;6.10;;
68247;SDS011;55064;49.636;12.164;2023-08-21T13:01:51;9.45;;;6.25;;
68247;SDS011;55064;49.636;12.164;2023-08-21T13:04:17;12.32;;;6.10;;
68247;SDS011;55064;49.636;12.164;2023-08-21T13:06:44;11.77;;;5.93;;
68247;SDS011;55064;49.636;12.164;2023-08-21T13:09:10;11.63;;;6.10;;
68247;SDS011;55064;49.636;12.164;2023-08-21T13:11:37;12.10;;;7.00;;
68247;SDS011;55064;49.636;12.164;2023-08-21T13:14:03;13.33;;;6.80;;
68247;SDS011;55064;49.636;12.164;2023-08-21T13:16:31;10.77;;;6.83;;
68247;SDS011;55064;49.636;12.164;2023-08-21T13:18:56;9.82;;;6.75;;
68247;SDS011;55064;49.636;12.164;2023-08-21T13:21:21;11.37;;;7.00;;
68247;SDS011;55064;49.636;12.164;2023-08-21T13:23:47;11.82;;;7.43;;
68247;SDS011;55064;49.636;12.164;2023-08-21T13:26:13;10.73;;;7.60;;
68247;SDS011;55064;49.636;12.164;2023-08-21T13:28:39;11.18;;;7.13;;
68247;SDS011;55064;49.636;12.164;2023-08-21T13:31:05;12.60;;;7.50;;
68247;SDS011;55064;49.636;12.164;2023-08-21T13:33:43;12.53;;;7.90;;
68247;SDS011;55064;49.636;12.164;2023-08-21T13:36:09;12.63;;;7.63;;
68247;SDS011;55064;49.636;12.164;2023-08-21T13:38:35;11.23;;;7.33;;
68247;SDS011;55064;49.636;12.164;2023-08-21T13:41:01;11.87;;;7.80;;
68247;SDS011;55064;49.636;12.164;2023-08-21T13:43:27;14.27;;;8.33;;
68247;SDS011;55064;49.636;12.164;2023-08-21T13:45:59;13.35;;;8.18;;
68247;SDS011;55064;49.636;12.164;2023-08-21T13:48:25;11.00;;;7.43;;
68247;SDS011;55064;49.636;12.164;2023-08-21T13:50:53;12.77;;;8.07;;
68247;SDS011;55064;49.636;12.164;2023-08-21T13:53:21;13.68;;;7.72;;
68247;SDS011;55064;49.636;12.164;2023-08-21T13:55:46;10.43;;;7.50;;
68247;SDS011;55064;49.636;12.164;2023-08-21T13:58:12;12.00;;;7.77;;
68247;SDS011;55064;49.636;12.164;2023-08-21T14:00:37;10.90;;;7.70;;
68247;SDS011;55064;49.636;12.164;2023-08-21T14:03:03;13.00;;;7.70;;
68247;SDS011;55064;49.636;12.164;2023-08-21T14:05:28;10.77;;;7.20;;
68247;SDS011;55064;49.636;12.164;2023-08-21T14:07:56;12.63;;;7.47;;
68247;SDS011;55064;49.636;12.164;2023-08-21T14:10:23;12.47;;;6.97;;
68247;SDS011;55064;49.636;12.164;2023-08-21T14:12:48;11.65;;;7.05;;
68247;SDS011;55064;49.636;12.164;2023-08-21T14:15:18;12.32;;;7.82;;
68247;SDS011;55064;49.636;12.164;2023-08-21T14:17:44;12.00;;;7.13;;
68247;SDS011;55064;49.636;12.164;2023-08-21T14:20:11;11.38;;;7.00;;
68247;SDS011;55064;49.636;12.164;2023-08-21T14:22:37;12.57;;;6.63;;
68247;SDS011;55064;49.636;12.164;2023-08-21T14:25:03;10.77;;;6.93;;
68247;SDS011;55064;49.636;12.164;2023-08-21T14:27:32;13.02;;;7.38;;
68247;SDS011;55064;49.636;12.164;2023-08-21T14:29:59;11.13;;;7.77;;
68247;SDS011;55064;49.636;12.164;2023-08-21T14:32:29;13.82;;;7.30;;
68247;SDS011;55064;49.636;12.164;2023-08-21T14:34:54;13.75;;;8.27;;
68247;SDS011;55064;49.636;12.164;2023-08-21T14:37:20;10.60;;;7.07;;
68247;SDS011;55064;49.636;12.164;2023-08-21T14:45:44;9.80;;;6.82;;
68247;SDS011;55064;49.636;12.164;2023-08-21T14:51:33;10.13;;;6.77;;
68247;SDS011;55064;49.636;12.164;2023-08-21T14:59:54;11.38;;;6.70;;
68247;SDS011;55064;49.636;12.164;2023-08-21T15:02:21;10.02;;;7.10;;
68247;SDS011;55064;49.636;12.164;2023-08-21T15:04:48;12.77;;;7.07;;
68247;SDS011;55064;49.636;12.164;2023-08-21T15:10:20;11.07;;;7.00;;
68247;SDS011;55064;49.636;12.164;2023-08-21T15:15:42;10.50;;;6.78;;
68247;SDS011;55064;49.636;12.164;2023-08-21T15:18:09;9.70;;;6.23;;
68247;SDS011;55064;49.636;12.164;2023-08-21T15:23:51;10.23;;;6.13;;
68247;SDS011;55064;49.636;12.164;2023-08-21T15:26:23;9.60;;;6.20;;
68247;SDS011;55064;49.636;12.164;2023-08-21T15:28:55;10.00;;;6.23;;
68247;SDS011;55064;49.636;12.164;2023-08-21T15:34:34;10.80;;;6.20;;
68247;SDS011;55064;49.636;12.164;2023-08-21T15:37:01;11.10;;;6.45;;
68247;SDS011;55064;49.636;12.164;2023-08-21T15:54:19;11.02;;;5.80;;
68247;SDS011;55064;49.636;12.164;2023-08-21T16:03:01;9.43;;;5.68;;
68247;SDS011;55064;49.636;12.164;2023-08-21T16:05:35;7.50;;;5.28;;
68247;SDS011;55064;49.636;12.164;2023-08-21T16:08:01;8.93;;;5.63;;
68247;SDS011;55064;49.636;12.164;2023-08-21T16:13:49;10.07;;;5.55;;
68247;SDS011;55064;49.636;12.164;2023-08-21T16:19:37;10.95;;;5.65;;
68247;SDS011;55064;49.636;12.164;2023-08-21T16:28:53;8.50;;;5.97;;
68247;SDS011;55064;49.636;12.164;2023-08-21T16:34:43;9.20;;;5.82;;
68247;SDS011;55064;49.636;12.164;2023-08-21T16:40:30;8.93;;;5.53;;
68247;SDS011;55064;49.636;12.164;2023-08-21T16:49:25;8.50;;;5.00;;
68247;SDS011;55064;49.636;12.164;2023-08-21T16:58:34;8.50;;;5.47;;
68247;SDS011;55064;49.636;12.164;2023-08-21T17:10:36;8.50;;;5.22;;
68247;SDS011;55064;49.636;12.164;2023-08-21T17:16:18;7.75;;;5.28;;
68247;SDS011;55064;49.636;12.164;2023-08-21T17:18:45;8.65;;;5.25;;
68247;SDS011;55064;49.636;12.164;2023-08-21T17:21:19;10.43;;;5.50;;
68247;SDS011;55064;49.636;12.164;2023-08-21T17:30:40;7.20;;;4.95;;
68247;SDS011;55064;49.636;12.164;2023-08-21T17:33:12;7.70;;;4.90;;
68247;SDS011;55064;49.636;12.164;2023-08-21T17:42:26;8.65;;;5.07;;
68247;SDS011;55064;49.636;12.164;2023-08-21T17:54:57;8.63;;;4.80;;
68247;SDS011;55064;49.636;12.164;2023-08-21T17:57:25;8.82;;;5.35;;
68247;SDS011;55064;49.636;12.164;2023-08-21T17:59:52;10.63;;;5.43;;
68247;SDS011;55064;49.636;12.164;2023-08-21T18:02:17;9.13;;;5.55;;
68247;SDS011;55064;49.636;12.164;2023-08-21T18:04:43;11.07;;;5.60;;
68247;SDS011;55064;49.636;12.164;2023-08-21T18:07:11;10.02;;;5.60;;
68247;SDS011;55064;49.636;12.164;2023-08-21T18:09:37;13.05;;;5.45;;
68247;SDS011;55064;49.636;12.164;2023-08-21T18:12:03;10.03;;;5.40;;
68247;SDS011;55064;49.636;12.164;2023-08-21T18:14:29;11.57;;;5.13;;
68247;SDS011;55064;49.636;12.164;2023-08-21T18:16:58;9.10;;;5.50;;
68247;SDS011;55064;49.636;12.164;2023-08-21T18:19:28;10.50;;;5.40;;
68247;SDS011;55064;49.636;12.164;2023-08-21T18:21:55;11.02;;;5.40;;
68247;SDS011;55064;49.636;12.164;2023-08-21T18:24:24;8.57;;;5.00;;
68247;SDS011;55064;49.636;12.164;2023-08-21T18:26:52;9.10;;;5.18;;
68247;SDS011;55064;49.636;12.164;2023-08-21T18:29:19;9.77;;;5.50;;
68247;SDS011;55064;49.636;12.164;2023-08-21T18:31:44;11.77;;;5.60;;
68247;SDS011;55064;49.636;12.164;2023-08-21T18:34:10;9.68;;;5.53;;
68247;SDS011;55064;49.636;12.164;2023-08-21T18:36:40;9.80;;;4.90;;
68247;SDS011;55064;49.636;12.164;2023-08-21T18:39:08;8.13;;;4.78;;
68247;SDS011;55064;49.636;12.164;2023-08-21T18:41:37;9.33;;;5.10;;
68247;SDS011;55064;49.636;12.164;2023-08-21T18:44:08;8.33;;;5.00;;
68247;SDS011;55064;49.636;12.164;2023-08-21T18:46:35;9.40;;;5.38;;
68247;SDS011;55064;49.636;12.164;2023-08-21T18:49:06;9.10;;;4.87;;
68247;SDS011;55064;49.636;12.164;2023-08-21T18:51:34;8.93;;;5.10;;
68247;SDS011;55064;49.636;12.164;2023-08-21T18:53:59;7.80;;;4.80;;
68247;SDS011;55064;49.636;12.164;2023-08-21T18:56:32;9.10;;;4.53;;
68247;SDS011;55064;49.636;12.164;2023-08-21T18:59:03;9.02;;;5.07;;
68247;SDS011;55064;49.636;12.164;2023-08-21T19:01:37;8.23;;;5.32;;
68247;SDS011;55064;49.636;12.164;2023-08-21T19:04:02;11.73;;;4.75;;
68247;SDS011;55064;49.636;12.164;2023-08-21T19:06:29;10.07;;;5.40;;
68247;SDS011;55064;49.636;12.164;2023-08-21T19:08:55;13.63;;;5.00;;
68247;SDS011;55064;49.636;12.164;2023-08-21T19:11:20;9.43;;;5.50;;
68247;SDS011;55064;49.636;12.164;2023-08-21T19:13:47;9.57;;;5.20;;
68247;SDS011;55064;49.636;12.164;2023-08-21T19:16:15;10.25;;;5.25;;
68247;SDS011;55064;49.636;12.164;2023-08-21T19:18:41;9.53;;;4.93;;
68247;SDS011;55064;49.636;12.164;2023-08-21T19:21:21;9.80;;;5.30;;
68247;SDS011;55064;49.636;12.164;2023-08-21T19:23:47;11.38;;;5.22;;
68247;SDS011;55064;49.636;12.164;2023-08-21T19:26:15;8.55;;;4.53;;
68247;SDS011;55064;49.636;12.164;2023-08-21T19:28:44;8.83;;;4.90;;
68247;SDS011;55064;49.636;12.164;2023-08-21T19:31:11;8.32;;;4.70;;
68247;SDS011;55064;49.636;12.164;2023-08-21T19:46:39;8.82;;;5.43;;
68247;SDS011;55064;49.636;12.164;2023-08-21T19:49:23;8.70;;;4.68;;
68247;SDS011;55064;49.636;12.164;2023-08-21T19:54:44;8.23;;;4.90;;
68247;SDS011;55064;49.636;12.164;2023-08-21T20:04:01;9.00;;;4.50;;
68247;SDS011;55064;49.636;12.164;2023-08-21T20:10:00;9.65;;;4.93;;
68247;SDS011;55064;49.636;12.164;2023-08-21T20:12:33;9.63;;;4.82;;
68247;SDS011;55064;49.636;12.164;2023-08-21T20:15:06;8.65;;;4.50;;
68247;SDS011;55064;49.636;12.164;2023-08-21T20:30:04;9.48;;;4.57;;
68247;SDS011;55064;49.636;12.164;2023-08-21T20:35:55;7.37;;;4.50;;
68247;SDS011;55064;49.636;12.164;2023-08-21T20:44:29;10.73;;;5.05;;
68247;SDS011;55064;49.636;12.164;2023-08-21T20:46:55;9.00;;;5.00;;
68247;SDS011;55064;49.636;12.164;2023-08-21T20:49:21;9.03;;;4.70;;
68247;SDS011;55064;49.636;12.164;2023-08-21T20:51:49;8.82;;;4.57;;
68247;SDS011;55064;49.636;12.164;2023-08-21T21:00:19;7.95;;;4.60;;
68247;SDS011;55064;49.636;12.164;2023-08-21T21:05:20;8.10;;;4.90;;
68247;SDS011;55064;49.636;12.164;2023-08-21T21:07:54;8.25;;;5.10;;
68247;SDS011;55064;49.636;12.164;2023-08-21T21:13:03;10.57;;;5.32;;
68247;SDS011;55064;49.636;12.164;2023-08-21T21:15:29;10.17;;;4.80;;
68247;SDS011;55064;49.636;12.164;2023-08-21T21:21:21;8.25;;;5.03;;
68247;SDS011;55064;49.636;12.164;2023-08-21T21:27:08;10.38;;;4.50;;
68247;SDS011;55064;49.636;12.164;2023-08-21T21:32:16;8.77;;;4.75;;
68247;SDS011;55064;49.636;12.164;2023-08-21T21:38:03;13.60;;;5.10;;
68247;SDS011;55064;49.636;12.164;2023-08-21T21:59:45;10.35;;;4.88;;
68247;SDS011;55064;49.636;12.164;2023-08-21T22:05:32;10.23;;;4.70;;
68247;SDS011;55064;49.636;12.164;2023-08-21T22:17:19;9.53;;;4.80;;
68247;SDS011;55064;49.636;12.164;2023-08-21T22:32:16;11.40;;;5.33;;
68247;SDS011;55064;49.636;12.164;2023-08-21T22:53:48;8.63;;;5.25;;
68247;SDS011;55064;49.636;12.164;2023-08-21T22:59:32;8.43;;;5.22;;
68247;SDS011;55064;49.636;12.164;2023-08-21T23:11:46;10.65;;;5.45;;
68247;SDS011;55064;49.636;12.164;2023-08-21T23:26:32;9.45;;;5.93;;
